Time;durP1;ratioP1;P1;durP2;ratioP2;P2;SDS_P1;SDS_P2;PMS_P1;PMS_P2;Temp;Humidity;BMP_temperature;BMP_pressure;BME280_temperature;BME280_humidity;BME280_pressure;Samples;Min_cycle;Max_cycle;Signal;HPM_P1;HPM_P2
2020/12/05 00:02:17;;;;;;;30.98;19.48;;;2.00;85.80;;;;;;5013870;28;20105;-75
2020/12/05 00:04:43;;;;;;;34.17;19.92;;;2.00;86.00;;;;;;5013930;28;20037;-75
2020/12/05 00:07:08;;;;;;;31.58;16.95;;;2.10;86.10;;;;;;5013620;28;20108;-74
2020/12/05 00:09:34;;;;;;;29.08;17.20;;;2.10;86.20;;;;;;5013732;28;20104;-74
2020/12/05 00:12:08;;;;;;;31.13;16.40;;;2.10;86.30;;;;;;5013384;28;20076;-75
2020/12/05 00:14:34;;;;;;;26.42;15.70;;;2.20;86.30;;;;;;4996072;28;20030;-74
2020/12/05 00:16:59;;;;;;;25.25;15.77;;;2.20;86.60;;;;;;5013663;28;20099;-74
2020/12/05 00:19:25;;;;;;;25.35;15.10;;;2.30;86.40;;;;;;5013794;28;20526;-75
2020/12/05 00:21:55;;;;;;;24.55;14.05;;;2.30;86.40;;;;;;5022452;28;20479;-75
2020/12/05 00:24:21;;;;;;;24.08;13.02;;;2.40;86.30;;;;;;5032342;28;20077;-75
2020/12/05 00:26:50;;;;;;;25.60;14.75;;;2.40;86.20;;;;;;5029106;28;20049;-75
2020/12/05 00:29:17;;;;;;;26.10;14.55;;;2.40;86.10;;;;;;5016553;28;20112;-74
2020/12/05 00:31:42;;;;;;;16.05;11.40;;;2.40;86.10;;;;;;5014429;28;20026;-74
2020/12/05 00:34:08;;;;;;;23.20;15.35;;;2.50;86.10;;;;;;5013637;28;20367;-74
2020/12/05 00:36:34;;;;;;;27.60;16.33;;;2.50;86.10;;;;;;5013503;28;20084;-74
2020/12/05 00:38:59;;;;;;;24.67;15.05;;;2.40;86.20;;;;;;5013453;28;20029;-74
2020/12/05 00:41:25;;;;;;;26.35;16.15;;;2.40;86.30;;;;;;5013425;28;20075;-75
2020/12/05 00:43:50;;;;;;;23.00;14.85;;;2.40;86.30;;;;;;5013460;28;20030;-74
2020/12/05 00:46:16;;;;;;;22.30;14.82;;;2.40;86.40;;;;;;5013493;28;20022;-74
2020/12/05 00:48:42;;;;;;;24.95;15.00;;;2.40;86.50;;;;;;5013847;28;20041;-74
2020/12/05 00:51:11;;;;;;;22.92;14.88;;;2.50;86.60;;;;;;5013324;28;20018;-74
2020/12/05 00:53:36;;;;;;;23.95;14.48;;;2.50;86.60;;;;;;5013288;28;20025;-74
2020/12/05 00:56:02;;;;;;;22.52;13.98;;;2.50;86.30;;;;;;5013224;28;20426;-74
2020/12/05 00:58:34;;;;;;;22.45;14.88;;;2.50;86.10;;;;;;5012859;28;20505;-74
2020/12/05 01:01:00;;;;;;;19.83;13.40;;;2.50;86.20;;;;;;5012808;28;20018;-74
2020/12/05 01:03:25;;;;;;;21.30;13.25;;;2.50;86.30;;;;;;5013005;28;20037;-74
2020/12/05 01:05:51;;;;;;;21.13;13.52;;;2.60;86.30;;;;;;5013153;28;20030;-74
2020/12/05 01:08:16;;;;;;;22.00;12.70;;;2.50;86.20;;;;;;5013595;28;20028;-74
2020/12/05 01:10:42;;;;;;;23.38;16.05;;;2.60;86.20;;;;;;5012945;28;20486;-74
2020/12/05 01:13:07;;;;;;;18.30;11.93;;;2.50;86.10;;;;;;5013092;28;20056;-74
2020/12/05 01:15:33;;;;;;;15.82;10.90;;;2.50;86.30;;;;;;5013069;28;20030;-73
2020/12/05 01:17:58;;;;;;;20.77;14.00;;;2.50;86.30;;;;;;5012945;28;20042;-74
2020/12/05 01:20:24;;;;;;;18.65;12.43;;;2.40;86.40;;;;;;5013096;28;20022;-75
2020/12/05 01:22:50;;;;;;;14.70;10.45;;;2.40;87.50;;;;;;5013098;28;20344;-74
2020/12/05 01:25:16;;;;;;;18.73;12.98;;;2.40;86.80;;;;;;5013003;28;20097;-75
2020/12/05 01:27:43;;;;;;;16.83;11.18;;;2.40;86.90;;;;;;5013012;28;20125;-74
2020/12/05 01:30:09;;;;;;;21.02;13.40;;;2.40;86.90;;;;;;4995260;28;20018;-75
2020/12/05 01:32:35;;;;;;;17.60;10.93;;;2.50;86.90;;;;;;5012916;28;20022;-75
2020/12/05 01:35:00;;;;;;;16.17;10.77;;;2.50;86.80;;;;;;4995348;28;20388;-75
2020/12/05 01:37:26;;;;;;;13.57;10.10;;;2.50;86.70;;;;;;5012798;28;20126;-75
2020/12/05 01:39:51;;;;;;;15.07;10.73;;;2.60;86.60;;;;;;5012887;28;20033;-75
2020/12/05 01:42:17;;;;;;;21.42;13.40;;;2.60;86.50;;;;;;5017275;28;20049;-75
2020/12/05 01:44:43;;;;;;;18.58;12.43;;;2.50;86.40;;;;;;5016973;28;20021;-75
2020/12/05 01:47:10;;;;;;;20.02;13.43;;;2.50;86.20;;;;;;5013975;28;20096;-75
2020/12/05 01:49:36;;;;;;;23.13;16.73;;;2.50;86.30;;;;;;5012944;28;20505;-75
2020/12/05 01:52:02;;;;;;;19.35;13.00;;;2.50;86.60;;;;;;4995119;28;20104;-76
2020/12/05 01:54:28;;;;;;;22.63;13.93;;;2.50;86.70;;;;;;5012759;28;20033;-75
2020/12/05 01:56:59;;;;;;;19.48;12.77;;;2.40;86.70;;;;;;5012665;28;20077;-75
2020/12/05 01:59:25;;;;;;;21.67;15.77;;;2.50;86.90;;;;;;5015143;28;20022;-74
2020/12/05 02:01:52;;;;;;;19.02;13.77;;;2.50;86.80;;;;;;5016250;28;20026;-74
2020/12/05 02:04:18;;;;;;;21.13;13.85;;;2.30;87.20;;;;;;5016263;28;20081;-74
2020/12/05 02:07:01;;;;;;;21.27;14.50;;;2.40;87.30;;;;;;5016155;28;20502;-75
2020/12/05 02:09:38;;;;;;;20.70;12.43;;;2.30;87.60;;;;;;5016212;28;20029;-75
2020/12/05 02:12:04;;;;;;;20.88;14.02;;;2.30;87.60;;;;;;5015949;28;20120;-75
2020/12/05 02:14:31;;;;;;;19.52;13.43;;;2.40;87.60;;;;;;5016045;28;20148;-75
2020/12/05 02:17:04;;;;;;;20.88;13.30;;;2.50;87.60;;;;;;5015885;28;20034;-74
2020/12/05 02:19:42;;;;;;;18.48;13.20;;;2.50;87.50;;;;;;5016040;28;20021;-74
2020/12/05 02:22:12;;;;;;;20.08;12.32;;;2.50;87.30;;;;;;5015984;28;20018;-74
2020/12/05 02:24:39;;;;;;;20.52;13.75;;;2.60;87.10;;;;;;5016073;28;20026;-74
2020/12/05 02:27:05;;;;;;;21.55;13.52;;;2.60;86.80;;;;;;5016700;28;20478;-74
2020/12/05 02:29:34;;;;;;;19.13;13.02;;;2.60;86.40;;;;;;5031725;28;20091;-75
2020/12/05 02:32:01;;;;;;;17.55;12.38;;;2.60;86.30;;;;;;5025656;28;20029;-75
2020/12/05 02:34:27;;;;;;;15.68;11.30;;;2.60;86.20;;;;;;5016672;28;20018;-75
2020/12/05 02:36:56;;;;;;;16.55;11.90;;;2.60;86.20;;;;;;5016319;28;20030;-74
2020/12/05 02:39:22;;;;;;;16.98;12.20;;;2.60;86.20;;;;;;5016569;28;20113;-75
2020/12/05 02:41:48;;;;;;;17.88;12.30;;;2.70;86.30;;;;;;5016371;28;20050;-75
2020/12/05 02:44:14;;;;;;;17.65;12.43;;;2.70;86.30;;;;;;5015666;28;20022;-75
2020/12/05 02:46:42;;;;;;;18.90;11.98;;;2.60;86.10;;;;;;5015483;28;20040;-74
2020/12/05 02:49:08;;;;;;;17.23;12.27;;;2.70;86.10;;;;;;5015353;28;20018;-74
2020/12/05 02:51:33;;;;;;;18.23;12.70;;;2.60;86.00;;;;;;5015330;28;20463;-74
2020/12/05 02:53:59;;;;;;;16.48;11.80;;;2.70;86.10;;;;;;5015279;28;20025;-74
2020/12/05 02:56:24;;;;;;;17.20;11.85;;;2.60;86.00;;;;;;4997601;28;20044;-74
2020/12/05 02:58:50;;;;;;;17.92;12.95;;;2.60;86.00;;;;;;4997546;28;20057;-75
2020/12/05 03:01:15;;;;;;;17.25;11.75;;;2.70;86.20;;;;;;5015073;28;20084;-74
2020/12/05 03:03:41;;;;;;;18.80;13.35;;;2.60;86.10;;;;;;5015266;28;20504;-74
2020/12/05 03:06:07;;;;;;;18.08;12.93;;;2.60;86.10;;;;;;5015053;28;20022;-74
2020/12/05 03:08:32;;;;;;;15.85;11.98;;;2.60;86.10;;;;;;4997450;28;20029;-74
2020/12/05 03:10:58;;;;;;;18.52;13.40;;;2.60;86.20;;;;;;5013690;28;20180;-74
2020/12/05 03:13:23;;;;;;;17.65;12.82;;;2.60;86.30;;;;;;5015011;28;20030;-74
2020/12/05 03:15:50;;;;;;;17.17;12.75;;;2.60;86.40;;;;;;5015002;28;20022;-74
2020/12/05 03:18:15;;;;;;;16.23;12.30;;;2.70;86.40;;;;;;5014809;28;20037;-75
2020/12/05 03:20:41;;;;;;;16.92;12.65;;;2.60;86.30;;;;;;5014892;28;20124;-74
2020/12/05 03:23:06;;;;;;;18.77;13.10;;;2.60;86.20;;;;;;5014686;28;20030;-74
2020/12/05 03:25:32;;;;;;;18.77;13.65;;;2.70;86.30;;;;;;5014937;28;20510;-74
2020/12/05 03:27:57;;;;;;;21.00;13.70;;;2.70;86.20;;;;;;5014747;28;20466;-74
2020/12/05 03:30:23;;;;;;;17.95;13.05;;;2.70;86.10;;;;;;4997237;28;20561;-74
2020/12/05 03:32:49;;;;;;;19.52;13.65;;;2.70;86.10;;;;;;5014713;28;20033;-74
2020/12/05 03:35:15;;;;;;;16.33;12.70;;;2.70;86.10;;;;;;5014818;28;20022;-74
2020/12/05 03:37:40;;;;;;;17.77;13.27;;;2.70;86.10;;;;;;5014586;28;20045;-74
2020/12/05 03:40:06;;;;;;;15.85;11.43;;;2.70;85.90;;;;;;5014644;28;20049;-74
2020/12/05 03:42:32;;;;;;;14.45;10.93;;;2.80;85.90;;;;;;5014683;28;20494;-74
2020/12/05 03:44:58;;;;;;;12.88;8.85;;;2.70;85.70;;;;;;5014591;28;20497;-74
2020/12/05 03:47:23;;;;;;;13.02;8.93;;;2.70;85.90;;;;;;4997566;28;20026;-74
2020/12/05 03:49:49;;;;;;;10.63;8.35;;;2.60;86.00;;;;;;4997521;28;20116;-74
2020/12/05 03:52:15;;;;;;;12.55;9.57;;;2.60;86.00;;;;;;5015474;28;20030;-74
2020/12/05 03:54:42;;;;;;;13.57;9.45;;;2.60;86.20;;;;;;5016079;28;20025;-74
2020/12/05 03:57:07;;;;;;;12.18;9.00;;;2.60;86.50;;;;;;5016897;28;20033;-74
2020/12/05 03:59:33;;;;;;;11.52;8.65;;;2.60;86.50;;;;;;5018615;28;20029;-73
2020/12/05 04:01:59;;;;;;;10.05;8.00;;;2.50;86.90;;;;;;5016067;28;20033;-73
2020/12/05 04:04:25;;;;;;;11.02;8.07;;;2.50;87.10;;;;;;5014325;28;20026;-74
2020/12/05 04:06:50;;;;;;;10.38;8.00;;;2.60;87.10;;;;;;4996265;28;20067;-73
2020/12/05 04:09:16;;;;;;;10.65;7.60;;;2.50;87.00;;;;;;5013923;28;20053;-73
2020/12/05 04:11:41;;;;;;;8.23;6.63;;;2.50;86.90;;;;;;5014806;28;20049;-73
2020/12/05 04:14:08;;;;;;;7.40;6.15;;;2.60;86.90;;;;;;4999252;28;20395;-74
2020/12/05 04:16:34;;;;;;;6.95;5.35;;;2.60;86.80;;;;;;5030404;28;20010;-74
2020/12/05 04:19:00;;;;;;;6.85;5.50;;;2.50;86.90;;;;;;5013652;28;20521;-73
2020/12/05 04:21:26;;;;;;;8.27;6.35;;;2.50;87.00;;;;;;5013817;28;20436;-74
2020/12/05 04:23:53;;;;;;;7.85;5.88;;;2.50;87.10;;;;;;5013696;28;20113;-74
2020/12/05 04:26:19;;;;;;;9.10;5.80;;;2.50;87.30;;;;;;5013750;28;20041;-74
2020/12/05 04:28:45;;;;;;;8.65;5.05;;;2.50;87.40;;;;;;4995943;28;20553;-74
2020/12/05 04:31:10;;;;;;;16.17;8.35;;;2.50;87.40;;;;;;5013742;28;20105;-74
2020/12/05 04:33:36;;;;;;;24.30;14.82;;;2.60;87.40;;;;;;5013487;28;20108;-74
2020/12/05 04:36:03;;;;;;;23.30;15.57;;;2.50;87.40;;;;;;5013437;28;20029;-74
2020/12/05 04:38:29;;;;;;;23.63;15.30;;;2.50;87.50;;;;;;5013449;28;20084;-74
2020/12/05 04:40:56;;;;;;;19.98;12.70;;;2.60;87.50;;;;;;5013441;28;20034;-74
2020/12/05 04:43:22;;;;;;;22.48;13.95;;;2.60;87.40;;;;;;5013367;28;20037;-74
2020/12/05 04:45:48;;;;;;;23.90;15.30;;;2.60;87.30;;;;;;5013080;28;20097;-74
2020/12/05 04:48:14;;;;;;;22.83;14.82;;;2.60;87.40;;;;;;5013303;28;20490;-73
2020/12/05 04:50:44;;;;;;;18.02;12.73;;;2.60;87.30;;;;;;5013489;28;20097;-73
2020/12/05 04:53:12;;;;;;;16.05;10.30;;;2.60;87.40;;;;;;5013147;28;20029;-73
2020/12/05 04:55:42;;;;;;;11.70;8.77;;;2.60;87.40;;;;;;5013141;28;20105;-74
2020/12/05 04:58:16;;;;;;;12.45;8.10;;;2.60;87.50;;;;;;5013057;28;20030;-74
2020/12/05 05:00:42;;;;;;;16.13;10.07;;;2.60;87.50;;;;;;5013058;28;20026;-74
2020/12/05 05:03:09;;;;;;;13.48;9.10;;;2.60;87.40;;;;;;5013022;28;20026;-74
2020/12/05 05:05:35;;;;;;;13.88;9.25;;;2.70;87.30;;;;;;5012959;28;20462;-74
2020/12/05 05:08:00;;;;;;;13.32;8.70;;;2.70;87.20;;;;;;5013002;28;20028;-74
2020/12/05 05:10:29;;;;;;;10.95;7.80;;;2.80;87.00;;;;;;5012965;28;20018;-73
2020/12/05 05:16:13;;;;;;;9.13;7.03;;;2.80;86.80;;;;;;5008009;28;20044;-74
2020/12/05 05:18:39;;;;;;;7.00;5.88;;;2.80;86.80;;;;;;5012849;28;20030;-74
2020/12/05 05:21:04;;;;;;;7.63;5.75;;;2.80;86.50;;;;;;5012671;28;20037;-73
2020/12/05 05:23:30;;;;;;;8.45;5.80;;;2.80;86.40;;;;;;5012594;28;20022;-77
2020/12/05 05:26:02;;;;;;;6.22;5.05;;;2.90;86.50;;;;;;4995064;28;20053;-73
2020/12/05 05:28:31;;;;;;;4.90;3.65;;;2.80;86.20;;;;;;5012884;28;20036;-75
2020/12/05 05:31:17;;;;;;;4.55;3.35;;;2.80;86.00;;;;;;5012742;28;20030;-75
2020/12/05 05:33:43;;;;;;;3.22;2.80;;;2.80;85.90;;;;;;5014347;28;20033;-75
2020/12/05 05:36:29;;;;;;;3.00;2.40;;;2.80;85.90;;;;;;5016657;28;20056;-75
2020/12/05 05:38:59;;;;;;;3.55;2.58;;;2.80;85.80;;;;;;4998817;28;20041;-76
2020/12/05 05:41:26;;;;;;;4.18;3.10;;;2.80;85.90;;;;;;5016499;28;20022;-75
2020/12/05 05:44:01;;;;;;;6.78;4.30;;;2.80;85.90;;;;;;5016659;28;20033;-74
2020/12/05 05:46:31;;;;;;;8.43;5.50;;;2.80;86.00;;;;;;5017153;28;20018;-74
2020/12/05 05:48:58;;;;;;;9.73;5.90;;;2.80;86.00;;;;;;5016683;28;20034;-75
2020/12/05 05:51:41;;;;;;;9.25;5.50;;;2.80;86.00;;;;;;5016263;28;20117;-74
2020/12/05 05:54:26;;;;;;;9.40;6.30;;;2.80;86.10;;;;;;5016296;28;20033;-74
2020/12/05 05:57:07;;;;;;;10.63;6.10;;;2.70;86.20;;;;;;5016080;28;20026;-75
2020/12/05 05:59:40;;;;;;;8.23;5.25;;;2.70;86.30;;;;;;5016143;28;20034;-74
2020/12/05 06:02:07;;;;;;;5.93;3.75;;;2.70;86.30;;;;;;5016144;28;20065;-74
2020/12/05 06:04:41;;;;;;;4.70;3.40;;;2.70;86.40;;;;;;5016119;28;20033;-74
2020/12/05 06:07:09;;;;;;;6.55;4.63;;;2.70;86.40;;;;;;5016088;28;20036;-74
2020/12/05 06:09:40;;;;;;;6.05;4.53;;;2.70;86.50;;;;;;5016969;28;20084;-73
2020/12/05 06:12:08;;;;;;;5.03;4.05;;;2.70;86.60;;;;;;5019985;28;20056;-74
2020/12/05 06:14:34;;;;;;;6.05;4.00;;;2.60;86.60;;;;;;5016490;28;20069;-73
2020/12/05 06:17:00;;;;;;;5.78;4.55;;;2.70;86.90;;;;;;5016118;28;20030;-73
2020/12/05 06:19:25;;;;;;;9.38;5.88;;;2.70;86.90;;;;;;5015923;28;20029;-73
2020/12/05 06:21:53;;;;;;;7.85;6.25;;;2.70;86.90;;;;;;5020897;28;20438;-73
2020/12/05 06:24:40;;;;;;;8.45;5.95;;;2.70;86.80;;;;;;5022350;28;20026;-75
2020/12/05 06:27:07;;;;;;;5.57;4.60;;;2.70;86.60;;;;;;5016978;28;20530;-73
2020/12/05 06:29:36;;;;;;;7.18;5.25;;;2.60;86.80;;;;;;5015756;28;20049;-74
2020/12/05 06:32:02;;;;;;;10.55;7.47;;;2.60;86.80;;;;;;5015660;28;20525;-74
2020/12/05 06:34:40;;;;;;;17.58;10.77;;;2.60;86.80;;;;;;5015631;28;20029;-75
2020/12/05 06:37:07;;;;;;;8.93;5.93;;;2.60;86.80;;;;;;5015447;28;20076;-75
2020/12/05 06:39:33;;;;;;;4.88;3.80;;;2.50;86.40;;;;;;5015560;28;20049;-75
2020/12/05 06:41:58;;;;;;;3.75;2.83;;;2.50;86.50;;;;;;5015475;28;20059;-75
2020/12/05 06:44:35;;;;;;;2.90;2.58;;;2.40;86.70;;;;;;5015338;28;20024;-75
2020/12/05 06:47:03;;;;;;;6.45;4.68;;;2.40;86.90;;;;;;5015401;28;20028;-75
2020/12/05 06:49:38;;;;;;;5.47;4.00;;;2.40;87.00;;;;;;5015409;28;20309;-75
2020/12/05 06:52:24;;;;;;;5.97;4.00;;;2.30;87.20;;;;;;5015102;28;20025;-75
2020/12/05 06:54:50;;;;;;;8.98;4.28;;;2.30;87.30;;;;;;5015303;28;20252;-74
2020/12/05 06:57:16;;;;;;;4.95;3.75;;;2.30;87.40;;;;;;5015075;28;20494;-75
2020/12/05 06:59:41;;;;;;;6.20;4.20;;;2.30;87.50;;;;;;5015089;28;20034;-75
2020/12/05 07:02:36;;;;;;;9.60;4.75;;;2.40;87.50;;;;;;5014834;28;20069;-75
2020/12/05 07:05:16;;;;;;;8.98;4.88;;;2.30;87.40;;;;;;4994090;28;20038;-75
2020/12/05 07:07:43;;;;;;;8.10;4.47;;;2.30;87.50;;;;;;5015369;28;20030;-75
2020/12/05 07:10:09;;;;;;;4.75;3.60;;;2.40;88.40;;;;;;5015025;28;20030;-74
2020/12/05 07:12:36;;;;;;;4.40;3.80;;;2.30;87.30;;;;;;5014790;28;20058;-74
2020/12/05 07:15:21;;;;;;;5.13;3.85;;;2.30;87.50;;;;;;5014839;28;20572;-75
2020/12/05 07:17:47;;;;;;;4.75;3.50;;;2.30;87.70;;;;;;5014800;28;20044;-75
2020/12/05 07:20:13;;;;;;;6.28;4.43;;;2.30;87.70;;;;;;5014698;28;20068;-74
2020/12/05 07:22:38;;;;;;;5.20;3.90;;;2.40;87.60;;;;;;4997021;28;20410;-74
2020/12/05 07:25:04;;;;;;;5.93;4.40;;;2.40;87.30;;;;;;5014453;28;20085;-75
2020/12/05 07:27:30;;;;;;;6.43;4.78;;;2.40;87.10;;;;;;4997055;28;20033;-73
2020/12/05 07:29:55;;;;;;;9.10;5.70;;;2.40;87.00;;;;;;5014619;28;20033;-73
2020/12/05 07:32:21;;;;;;;10.95;6.82;;;2.40;86.70;;;;;;5017563;28;20498;-74
2020/12/05 07:34:47;;;;;;;9.77;7.10;;;2.20;86.80;;;;;;5016111;28;20033;-74
2020/12/05 07:37:29;;;;;;;11.15;6.68;;;2.20;87.20;;;;;;5014330;28;20030;-74
2020/12/05 07:39:55;;;;;;;10.15;6.20;;;2.20;87.30;;;;;;4996732;28;20163;-73
2020/12/05 07:42:21;;;;;;;9.23;5.78;;;2.20;87.40;;;;;;5013772;28;20034;-74
2020/12/05 07:44:50;;;;;;;38.00;9.35;;;2.30;87.30;;;;;;5013787;28;20049;-74
2020/12/05 07:47:20;;;;;;;26.02;7.32;;;2.40;89.30;;;;;;5013286;28;20109;-75
2020/12/05 07:49:50;;;;;;;23.70;7.53;;;3.00;95.80;;;;;;5013091;28;20030;-74
2020/12/05 07:52:21;;;;;;;8.88;5.65;;;3.40;95.50;;;;;;5026073;28;20099;-75
2020/12/05 07:55:06;;;;;;;12.05;6.53;;;3.60;92.30;;;;;;5050894;28;20014;-75
2020/12/05 07:57:34;;;;;;;13.25;5.85;;;3.70;88.10;;;;;;5043797;28;20033;-76
2020/12/05 08:00:14;;;;;;;16.80;5.82;;;3.90;87.70;;;;;;5039592;28;20024;-77
2020/12/05 08:03:26;;;;;;;6.53;4.57;;;4.10;84.50;;;;;;5032291;28;20025;-74
2020/12/05 08:06:05;;;;;;;9.02;5.20;;;4.30;84.00;;;;;;5031981;28;20018;-73
2020/12/05 08:08:33;;;;;;;11.35;5.65;;;4.30;81.00;;;;;;5033256;28;20084;-73
2020/12/05 08:11:01;;;;;;;11.98;6.30;;;4.40;81.10;;;;;;5032970;28;20037;-74
2020/12/05 08:13:29;;;;;;;9.55;5.20;;;4.40;79.60;;;;;;5033169;28;20029;-73
2020/12/05 08:16:01;;;;;;;10.00;5.70;;;4.60;79.60;;;;;;5033091;28;20030;-73
2020/12/05 08:18:28;;;;;;;9.48;6.53;;;4.80;78.50;;;;;;5033110;28;20032;-73
2020/12/05 08:20:54;;;;;;;11.27;5.63;;;5.10;76.00;;;;;;5033302;28;20022;-73
2020/12/05 08:23:38;;;;;;;13.38;6.70;;;5.10;75.30;;;;;;5015540;28;20083;-73
2020/12/05 08:26:06;;;;;;;12.63;6.35;;;5.10;75.00;;;;;;5033442;28;20356;-73
2020/12/05 08:28:40;;;;;;;11.40;7.05;;;5.10;75.50;;;;;;5032119;28;20053;-74
2020/12/05 08:31:08;;;;;;;15.32;8.27;;;5.20;73.80;;;;;;5042160;28;20026;-72
2020/12/05 08:33:50;;;;;;;16.48;8.75;;;5.10;73.70;;;;;;5053175;28;20048;-73
2020/12/05 08:36:17;;;;;;;15.63;8.45;;;5.40;74.30;;;;;;5046993;28;20022;-73
2020/12/05 08:38:43;;;;;;;15.77;8.73;;;5.40;73.30;;;;;;5034783;28;20045;-73
2020/12/05 08:41:09;;;;;;;12.65;7.25;;;5.40;72.50;;;;;;5032639;28;20021;-73
2020/12/05 08:43:34;;;;;;;14.48;7.72;;;5.10;72.30;;;;;;5033436;28;20040;-73
2020/12/05 08:46:00;;;;;;;11.95;7.40;;;5.10;73.60;;;;;;5033125;28;20026;-74
2020/12/05 08:48:26;;;;;;;12.23;6.97;;;5.10;73.50;;;;;;5033326;28;20489;-79
2020/12/05 08:50:51;;;;;;;10.57;7.03;;;4.90;72.50;;;;;;5031836;28;20057;-75
2020/12/05 08:53:20;;;;;;;8.95;6.10;;;4.70;72.50;;;;;;5033209;28;20028;-74
2020/12/05 08:55:47;;;;;;;12.23;8.13;;;4.40;73.30;;;;;;5033561;28;20549;-75
2020/12/05 08:58:15;;;;;;;14.30;8.70;;;4.20;74.60;;;;;;5033741;28;20116;-75
2020/12/05 09:00:41;;;;;;;14.05;7.35;;;3.90;75.80;;;;;;5034111;28;20021;-74
2020/12/05 09:03:19;;;;;;;13.48;7.60;;;3.80;76.80;;;;;;5032708;28;20433;-75
2020/12/05 09:05:49;;;;;;;12.13;6.00;;;3.70;78.00;;;;;;5034259;28;20029;-75
2020/12/05 09:08:20;;;;;;;8.95;6.25;;;3.70;78.80;;;;;;5035559;28;20030;-74
2020/12/05 09:10:45;;;;;;;9.68;6.35;;;3.70;78.90;;;;;;5037522;28;20533;-75
2020/12/05 09:13:11;;;;;;;11.25;6.78;;;3.60;79.10;;;;;;5037334;28;20065;-75
2020/12/05 09:15:37;;;;;;;10.80;7.15;;;3.60;79.30;;;;;;5036828;28;20520;-75
2020/12/05 09:18:03;;;;;;;11.52;7.07;;;3.60;79.50;;;;;;5029558;28;20795;-75
2020/12/05 09:20:29;;;;;;;12.77;7.00;;;3.50;79.70;;;;;;4996995;28;20538;-73
2020/12/05 09:22:57;;;;;;;11.15;6.93;;;3.60;79.80;;;;;;4997908;28;20034;-74
2020/12/05 09:25:36;;;;;;;10.77;7.15;;;3.60;80.00;;;;;;4996817;28;20038;-76
2020/12/05 09:28:11;;;;;;;13.75;7.55;;;3.70;80.00;;;;;;4997109;28;20376;-76
2020/12/05 09:30:38;;;;;;;12.25;8.10;;;3.80;79.80;;;;;;4997185;28;20065;-80
2020/12/05 09:33:11;;;;;;;21.48;12.10;;;3.80;79.20;;;;;;4997047;28;20105;-75
2020/12/05 09:35:37;;;;;;;23.00;12.30;;;3.80;78.90;;;;;;4996401;28;20026;-74
2020/12/05 09:38:03;;;;;;;18.33;10.27;;;3.80;78.70;;;;;;4996376;28;20045;-75
2020/12/05 09:40:30;;;;;;;28.27;14.13;;;3.80;78.90;;;;;;4996850;28;20064;-75
2020/12/05 09:42:57;;;;;;;49.35;25.70;;;3.80;79.30;;;;;;4996434;28;20022;-75
2020/12/05 09:45:23;;;;;;;38.63;21.17;;;3.80;79.10;;;;;;4996470;28;20126;-74
2020/12/05 09:47:49;;;;;;;61.70;36.17;;;3.70;78.70;;;;;;4995960;28;20145;-77
2020/12/05 09:50:15;;;;;;;20.77;13.65;;;3.60;78.50;;;;;;4996224;28;20041;-75
2020/12/05 09:52:42;;;;;;;24.10;13.45;;;3.60;78.60;;;;;;4996688;28;20098;-73
2020/12/05 09:55:08;;;;;;;21.35;10.40;;;3.70;78.80;;;;;;4978549;28;20033;-74
2020/12/05 09:57:33;;;;;;;16.20;10.20;;;3.60;78.90;;;;;;4996092;28;20042;-74
2020/12/05 09:59:59;;;;;;;17.45;9.95;;;3.60;79.10;;;;;;4996127;28;20031;-74
2020/12/05 10:02:25;;;;;;;19.67;11.73;;;3.70;79.20;;;;;;4995579;28;20030;-74
2020/12/05 10:04:51;;;;;;;18.85;10.02;;;3.60;79.10;;;;;;4995839;28;20019;-74
2020/12/05 10:07:17;;;;;;;16.92;9.52;;;3.50;79.10;;;;;;4995963;28;20036;-74
2020/12/05 10:09:43;;;;;;;15.68;10.13;;;3.40;79.80;;;;;;4996013;28;20471;-75
2020/12/05 10:12:08;;;;;;;13.35;9.02;;;3.40;80.50;;;;;;4995847;28;20138;-75
2020/12/05 10:14:34;;;;;;;18.55;9.30;;;3.30;80.40;;;;;;4995927;28;20442;-75
2020/12/05 10:17:00;;;;;;;14.02;9.82;;;3.20;80.50;;;;;;4996051;28;20034;-75
2020/12/05 10:19:26;;;;;;;14.27;9.85;;;3.20;80.60;;;;;;4995490;28;20031;-75
2020/12/05 10:21:51;;;;;;;16.63;10.40;;;3.10;80.80;;;;;;4996048;28;20026;-75
2020/12/05 10:24:19;;;;;;;19.15;11.05;;;3.00;82.40;;;;;;4978360;28;20034;-74
2020/12/05 10:26:54;;;;;;;22.30;11.57;;;3.00;82.20;;;;;;4995747;28;20033;-75
2020/12/05 10:29:21;;;;;;;24.42;11.63;;;3.00;82.20;;;;;;4995717;28;20022;-75
2020/12/05 10:31:48;;;;;;;18.30;11.20;;;2.90;82.50;;;;;;4995615;28;20402;-74
2020/12/05 10:34:14;;;;;;;17.85;10.75;;;2.90;82.60;;;;;;4995595;28;20374;-75
2020/12/05 10:36:41;;;;;;;20.73;11.85;;;2.90;82.80;;;;;;4978009;28;20035;-75
2020/12/05 10:39:07;;;;;;;16.30;10.20;;;2.90;83.10;;;;;;4995656;28;20030;-75
2020/12/05 10:41:36;;;;;;;19.90;11.20;;;2.80;83.30;;;;;;4995676;28;20022;-72
2020/12/05 10:44:05;;;;;;;18.45;10.75;;;2.80;83.60;;;;;;4995737;28;20109;-75
2020/12/05 10:46:31;;;;;;;21.27;12.00;;;2.80;83.70;;;;;;4995537;28;20018;-74
2020/12/05 10:48:57;;;;;;;17.90;10.73;;;2.90;83.80;;;;;;4995294;28;20034;-74
2020/12/05 10:51:23;;;;;;;18.90;10.35;;;2.90;83.90;;;;;;4995427;28;20077;-74
2020/12/05 10:53:49;;;;;;;16.48;10.23;;;2.90;83.50;;;;;;4995327;28;20026;-75
2020/12/05 10:56:14;;;;;;;19.88;11.55;;;2.90;83.40;;;;;;4995156;28;20375;-75
2020/12/05 10:58:40;;;;;;;20.15;11.43;;;2.90;83.20;;;;;;4995228;28;20105;-74
2020/12/05 11:01:05;;;;;;;21.40;10.13;;;2.90;83.20;;;;;;4994865;28;20023;-74
2020/12/05 11:03:31;;;;;;;15.77;10.05;;;3.00;83.00;;;;;;4995076;28;20446;-74
2020/12/05 11:05:57;;;;;;;20.05;11.13;;;3.00;83.00;;;;;;4994700;28;20492;-73
2020/12/05 11:08:22;;;;;;;18.45;10.55;;;3.20;83.10;;;;;;4994788;28;20106;-73
2020/12/05 11:10:48;;;;;;;15.43;9.70;;;3.30;82.60;;;;;;4994636;28;20068;-74
2020/12/05 11:13:13;;;;;;;19.20;10.75;;;3.30;81.80;;;;;;4994556;28;20085;-73
2020/12/05 11:15:39;;;;;;;15.45;9.93;;;3.30;81.50;;;;;;4994724;28;20022;-74
2020/12/05 11:18:06;;;;;;;15.90;10.30;;;3.40;81.10;;;;;;4995034;28;20042;-74
2020/12/05 11:20:31;;;;;;;13.90;9.38;;;3.30;81.10;;;;;;4996973;28;20074;-73
2020/12/05 11:22:57;;;;;;;13.93;9.15;;;3.40;81.00;;;;;;4984780;28;20073;-75
2020/12/05 11:25:22;;;;;;;14.95;8.77;;;3.40;80.80;;;;;;5002562;28;20037;-73
2020/12/05 11:27:48;;;;;;;13.80;8.98;;;3.30;80.90;;;;;;4997008;28;20080;-73
2020/12/05 11:30:14;;;;;;;14.13;9.23;;;3.40;81.10;;;;;;4997026;28;20498;-73
2020/12/05 11:32:40;;;;;;;17.33;9.52;;;3.40;81.00;;;;;;4994200;28;20557;-72
2020/12/05 11:35:06;;;;;;;14.15;8.95;;;3.40;81.10;;;;;;4994687;28;20026;-73
2020/12/05 11:37:32;;;;;;;18.73;10.60;;;3.40;81.10;;;;;;4994639;28;20034;-73
2020/12/05 11:39:57;;;;;;;15.45;9.07;;;3.40;81.20;;;;;;4994603;28;20026;-74
2020/12/05 11:42:23;;;;;;;18.90;9.95;;;3.30;81.50;;;;;;4994579;28;20050;-74
2020/12/05 11:44:49;;;;;;;19.02;10.35;;;3.30;81.70;;;;;;4994338;28;20031;-74
2020/12/05 11:47:14;;;;;;;16.52;10.63;;;3.20;81.90;;;;;;4994448;28;20053;-73
2020/12/05 11:49:40;;;;;;;14.68;9.32;;;3.20;81.90;;;;;;4994279;28;20022;-73
2020/12/05 11:52:05;;;;;;;18.20;10.15;;;3.30;81.90;;;;;;4994021;28;20072;-73
2020/12/05 11:54:31;;;;;;;18.52;11.48;;;3.30;81.90;;;;;;4994330;28;20050;-74
2020/12/05 11:56:57;;;;;;;19.75;10.82;;;3.30;81.80;;;;;;4994188;28;20116;-74
2020/12/05 11:59:22;;;;;;;17.45;10.18;;;3.30;81.70;;;;;;4976746;28;20027;-74
2020/12/05 12:01:48;;;;;;;16.35;10.32;;;3.30;81.70;;;;;;4994141;28;20476;-74
2020/12/05 12:04:13;;;;;;;18.65;10.57;;;3.30;81.60;;;;;;4994223;28;20050;-73
2020/12/05 12:06:39;;;;;;;14.55;9.90;;;3.30;82.30;;;;;;4994209;28;20022;-74
2020/12/05 12:09:07;;;;;;;17.80;10.50;;;3.30;81.70;;;;;;4976498;28;20038;-73
2020/12/05 12:11:33;;;;;;;16.48;10.23;;;3.30;81.80;;;;;;4993954;28;20464;-73
2020/12/05 12:13:59;;;;;;;13.07;8.85;;;3.30;81.70;;;;;;4993834;28;20129;-74
2020/12/05 12:16:24;;;;;;;13.23;8.95;;;3.30;81.60;;;;;;4993715;28;20053;-73
2020/12/05 12:18:53;;;;;;;12.73;8.27;;;3.30;81.50;;;;;;4993727;28;20483;-73
2020/12/05 12:21:26;;;;;;;14.25;8.80;;;3.30;81.40;;;;;;4993494;28;20129;-73
2020/12/05 12:23:51;;;;;;;12.27;8.00;;;3.20;81.50;;;;;;4993532;28;20030;-73
2020/12/05 12:26:17;;;;;;;12.00;7.68;;;3.20;81.90;;;;;;4993597;28;20533;-73
2020/12/05 12:28:43;;;;;;;13.25;7.85;;;3.10;82.20;;;;;;4975823;28;20033;-73
2020/12/05 12:31:09;;;;;;;10.25;6.82;;;3.20;82.30;;;;;;4993322;28;20029;-75
2020/12/05 12:33:35;;;;;;;11.63;7.50;;;3.20;82.20;;;;;;4993681;28;20038;-73
2020/12/05 12:36:02;;;;;;;12.60;7.25;;;3.20;82.00;;;;;;4993604;28;20022;-74
2020/12/05 12:38:27;;;;;;;9.20;6.38;;;3.20;81.80;;;;;;4993355;28;20053;-74
2020/12/05 12:40:53;;;;;;;8.93;5.93;;;3.30;81.60;;;;;;4993167;28;20489;-73
2020/12/05 12:43:19;;;;;;;8.45;5.55;;;3.30;81.40;;;;;;4992906;28;20356;-74
2020/12/05 12:45:45;;;;;;;8.15;6.38;;;3.30;81.20;;;;;;4992981;28;20495;-73
2020/12/05 12:50:37;;;;;;;10.38;6.82;;;3.30;81.00;;;;;;4993190;28;20030;-72
2020/12/05 12:53:06;;;;;;;9.77;6.93;;;3.30;80.70;;;;;;4992817;28;20030;-73
2020/12/05 12:55:32;;;;;;;13.05;7.43;;;3.20;80.90;;;;;;4976032;28;20061;-73